createdAt,value
2018-11-03T00:00:01.937Z,2.84
2018-11-03T00:05:01.272Z,2.84
2018-11-03T00:10:01.647Z,2.75
2018-11-03T00:15:01.997Z,2.74
2018-11-03T00:20:01.329Z,2.61
2018-11-03T00:25:01.660Z,2.4
2018-11-03T00:30:01.718Z,2.34
2018-11-03T00:35:02.039Z,2.46
2018-11-03T00:40:01.102Z,2.5
2018-11-03T00:45:01.446Z,2.49
2018-11-03T00:50:01.528Z,2.49
2018-11-03T00:55:01.875Z,2.49
2018-11-03T01:00:01.899Z,2.41
2018-11-03T01:05:01.254Z,2.26
2018-11-03T01:10:01.358Z,2.13
2018-11-03T01:15:01.680Z,1.99
2018-11-03T01:20:01.656Z,2.01
2018-11-03T01:25:01.943Z,2.1
2018-11-03T01:30:01.914Z,2.13
2018-11-03T01:35:01.225Z,2.3
2018-11-03T01:40:02.108Z,2.29
2018-11-03T01:45:01.433Z,2.31
2018-11-03T01:50:01.388Z,2.34
2018-11-03T01:55:01.800Z,2.3
2018-11-03T02:00:01.462Z,2.34
2018-11-03T02:05:01.855Z,2.35
2018-11-03T02:10:01.313Z,2.37
2018-11-03T02:15:01.645Z,2.42
2018-11-03T02:20:01.987Z,2.44
2018-11-03T02:25:01.275Z,2.46
2018-11-03T02:30:01.619Z,2.46
2018-11-03T02:35:01.995Z,2.47
2018-11-03T02:40:01.307Z,2.5
2018-11-03T02:45:01.601Z,2.43
2018-11-03T02:50:01.923Z,2.41
2018-11-03T02:55:01.223Z,2.39
2018-11-03T03:00:01.541Z,2.25
2018-11-03T03:05:01.887Z,2.49
2018-11-03T03:10:01.186Z,2.21
2018-11-03T03:15:01.507Z,2.25
2018-11-03T03:20:01.834Z,2.4
2018-11-03T03:25:01.149Z,2.42
2018-11-03T03:30:01.379Z,2.17
2018-11-03T03:35:01.740Z,2.2
2018-11-03T03:40:01.385Z,2.28
2018-11-03T03:45:01.696Z,2.31
2018-11-03T03:50:02.032Z,2.29
2018-11-03T03:55:01.312Z,2.3
2018-11-03T04:00:01.842Z,2.32
2018-11-03T04:05:01.132Z,2.37
2018-11-03T04:10:01.437Z,2.29
2018-11-03T04:15:01.797Z,2.47
2018-11-03T04:20:02.053Z,2.16
2018-11-03T04:25:01.324Z,2.05
2018-11-03T04:30:02.085Z,2.01
2018-11-03T04:35:01.376Z,2.05
2018-11-03T04:40:01.542Z,1.96
2018-11-03T04:45:01.864Z,2.1
2018-11-03T04:50:01.941Z,1.65
2018-11-03T04:55:01.357Z,1.63
2018-11-03T05:00:01.902Z,1.7
2018-11-03T05:05:01.364Z,1.8
2018-11-03T05:10:01.750Z,1.67
2018-11-03T05:15:01.561Z,1.64
2018-11-03T05:20:01.739Z,1.45
2018-11-03T05:25:02.155Z,1.41
2018-11-03T05:30:01.119Z,1.24
2018-11-03T05:35:01.424Z,1.38
2018-11-03T05:40:01.753Z,1.26
2018-11-03T05:45:02.055Z,1.31
2018-11-03T05:50:01.336Z,1.36
2018-11-03T05:55:01.645Z,1.57
2018-11-03T06:00:01.927Z,1.41
2018-11-03T06:05:01.321Z,1.17
2018-11-03T06:10:01.616Z,1.1
2018-11-03T06:15:01.908Z,0.98
2018-11-03T06:20:01.223Z,0.65
2018-11-03T06:25:01.548Z,0.52
2018-11-03T06:30:01.892Z,0.39
2018-11-03T06:35:01.260Z,0.67
2018-11-03T06:40:01.789Z,0.6
2018-11-03T06:45:01.097Z,0.86
2018-11-03T06:50:01.425Z,0.68
2018-11-03T06:55:01.733Z,0.64
2018-11-03T07:00:02.081Z,0.79
2018-11-03T07:05:01.452Z,0.73
2018-11-03T07:10:01.123Z,0.47
2018-11-03T07:15:01.475Z,0.39
2018-11-03T07:20:01.884Z,0.36
2018-11-03T07:25:01.140Z,0.52
2018-11-03T07:30:01.447Z,0.58
2018-11-03T07:35:01.746Z,0.91
2018-11-03T07:40:01.541Z,0.93
2018-11-03T07:45:01.850Z,1.31
2018-11-03T07:50:01.972Z,1.47
2018-11-03T07:55:01.326Z,2.23
2018-11-03T08:00:01.685Z,2.36
2018-11-03T08:05:02.044Z,2.8
2018-11-03T08:10:01.320Z,2.88
2018-11-03T08:15:01.664Z,3.04
2018-11-03T08:20:01.988Z,3.53
2018-11-03T08:25:01.257Z,3.73
2018-11-03T08:30:01.574Z,4.03
2018-11-03T08:35:01.898Z,4.19
2018-11-03T08:40:01.216Z,4.42
2018-11-03T08:45:01.542Z,4.61
2018-11-03T08:50:01.842Z,4.94
2018-11-03T08:55:01.139Z,5.12
2018-11-03T09:00:01.535Z,5.23
2018-11-03T09:05:01.199Z,5.21
2018-11-03T09:10:01.473Z,5.45
2018-11-03T09:15:01.906Z,5.39
2018-11-03T09:20:01.101Z,5.54
2018-11-03T09:25:01.386Z,5.69
2018-11-03T09:30:01.247Z,5.79
2018-11-03T09:35:01.611Z,5.97
2018-11-03T09:40:01.289Z,6.15
2018-11-03T09:45:01.691Z,6.33
2018-11-03T09:50:01.398Z,6.36
2018-11-03T09:55:01.718Z,6.4
2018-11-03T10:00:01.992Z,6.46
2018-11-03T10:05:01.289Z,6.68
2018-11-03T10:10:01.543Z,6.71
2018-11-03T10:15:01.859Z,6.89
2018-11-03T10:20:01.138Z,7.02
2018-11-03T10:25:01.451Z,7.08
2018-11-03T10:30:01.725Z,7.39
2018-11-03T10:35:02.053Z,7.61
2018-11-03T10:40:01.323Z,7.43
2018-11-03T10:45:01.634Z,7.82
2018-11-03T10:50:01.884Z,8
2018-11-03T10:55:01.193Z,8.22
2018-11-03T11:00:01.478Z,8.38
2018-11-03T11:05:01.854Z,8.61
2018-11-03T11:10:01.146Z,8.51
2018-11-03T11:15:01.475Z,8.52
2018-11-03T11:20:01.859Z,8.58
2018-11-03T11:25:01.439Z,8.6
2018-11-03T11:30:01.440Z,8.76
2018-11-03T11:35:01.791Z,8.77
2018-11-03T11:40:01.106Z,8.61
2018-11-03T11:45:01.397Z,8.98
2018-11-03T11:50:01.804Z,8.97
2018-11-03T11:55:01.171Z,9.07
2018-11-03T12:00:01.786Z,9.07
2018-11-03T12:05:02.051Z,9.04
2018-11-03T12:10:01.639Z,9.09
2018-11-03T12:15:01.225Z,9.05
2018-11-03T12:20:01.518Z,9.03
2018-11-03T12:25:01.833Z,8.98
2018-11-03T12:30:01.114Z,9.02
2018-11-03T12:35:01.546Z,9.05
2018-11-03T12:40:01.855Z,9.06
2018-11-03T12:45:01.204Z,9.15
2018-11-03T12:50:01.540Z,9.18
2018-11-03T12:55:01.879Z,9.19
2018-11-03T13:00:01.175Z,9.19
2018-11-03T13:05:01.511Z,9.16
2018-11-03T13:10:02.158Z,9.14
2018-11-03T13:15:01.659Z,9.2
2018-11-03T13:20:01.952Z,9.17
2018-11-03T13:25:01.212Z,9.09
2018-11-03T13:30:01.513Z,9.16
2018-11-03T13:35:01.917Z,9.19
2018-11-03T13:40:01.757Z,9.17
2018-11-03T13:45:02.019Z,9.16
2018-11-03T13:50:01.258Z,9.08
2018-11-03T13:55:01.563Z,8.98
2018-11-03T14:00:01.845Z,8.93
2018-11-03T14:05:01.126Z,8.93
2018-11-03T14:10:01.401Z,8.81
2018-11-03T14:15:01.687Z,8.81
2018-11-03T14:20:01.991Z,8.82
2018-11-03T14:25:01.318Z,8.63
2018-11-03T14:30:01.657Z,8.43
2018-11-03T14:35:02.033Z,8.52
2018-11-03T14:40:01.320Z,8.64
2018-11-03T14:45:01.768Z,8.78
2018-11-03T14:50:01.280Z,8.82
2018-11-03T14:55:01.728Z,8.87
2018-11-03T15:00:01.099Z,8.83
2018-11-03T15:05:01.409Z,8.73
2018-11-03T15:10:01.687Z,8.7
2018-11-03T15:15:02.045Z,8.64
2018-11-03T15:20:01.901Z,8.44
2018-11-03T15:25:01.167Z,8
2018-11-03T15:30:01.472Z,7.78
2018-11-03T15:35:01.946Z,7.72
2018-11-03T15:40:01.625Z,7.52
2018-11-03T15:45:01.920Z,7.18
2018-11-03T15:50:01.181Z,6.66
2018-11-03T15:55:01.503Z,6.4
2018-11-03T16:00:01.784Z,6.4
2018-11-03T16:05:02.070Z,6.57
2018-11-03T16:10:01.322Z,6.44
2018-11-03T16:15:01.682Z,6.29
2018-11-03T16:20:01.965Z,5.99
2018-11-03T16:25:01.226Z,5.82
2018-11-03T16:30:01.520Z,5.71
2018-11-03T16:35:01.843Z,5.61
2018-11-03T16:40:01.103Z,5.28
2018-11-03T16:45:01.402Z,5.2
2018-11-03T16:50:01.684Z,5.01
2018-11-03T16:55:01.979Z,4.86
2018-11-03T17:00:01.238Z,4.79
2018-11-03T17:05:01.522Z,4.65
2018-11-03T17:10:01.908Z,4.58
2018-11-03T17:15:01.241Z,4.63
2018-11-03T17:20:01.562Z,4.59
2018-11-03T17:25:01.891Z,4.48
2018-11-03T17:30:01.428Z,4.39
2018-11-03T17:35:01.761Z,4.22
2018-11-03T17:40:02.034Z,4.17
2018-11-03T17:45:01.295Z,4.09
2018-11-03T17:50:01.647Z,4.05
2018-11-03T17:55:02.013Z,4.07
2018-11-03T18:00:01.320Z,3.99
2018-11-03T18:05:01.303Z,3.94
2018-11-03T18:10:01.663Z,3.91
2018-11-03T18:15:01.943Z,3.85
2018-11-03T18:20:01.212Z,3.84
2018-11-03T18:25:01.506Z,3.93
2018-11-03T18:30:01.835Z,3.89
2018-11-03T18:35:01.154Z,3.78
2018-11-03T18:40:01.470Z,3.84
2018-11-03T18:45:01.856Z,3.84
2018-11-03T18:50:01.167Z,3.83
2018-11-03T18:55:01.468Z,3.86
2018-11-03T19:00:01.769Z,3.75
2018-11-03T19:05:02.043Z,3.64
2018-11-03T19:10:01.337Z,3.67
2018-11-03T19:15:01.617Z,3.59
2018-11-03T19:20:01.898Z,3.58
2018-11-03T19:25:01.180Z,3.46
2018-11-03T19:30:01.491Z,3.49
2018-11-03T19:35:01.940Z,3.56
2018-11-03T19:40:01.196Z,3.59
2018-11-03T19:45:01.495Z,3.61
2018-11-03T19:50:01.776Z,3.59
2018-11-03T19:55:02.058Z,3.47
2018-11-03T20:00:01.311Z,3.42
2018-11-03T20:05:01.643Z,3.24
2018-11-03T20:10:01.979Z,3.19
2018-11-03T20:15:01.665Z,3.35
2018-11-03T20:20:01.965Z,3.18
2018-11-03T20:25:01.253Z,2.87
2018-11-03T20:30:01.558Z,2.68
2018-11-03T20:35:01.876Z,2.56
2018-11-03T20:40:01.165Z,2.44
2018-11-03T20:45:01.449Z,2.47
2018-11-03T20:50:01.753Z,2.69
2018-11-03T20:55:02.045Z,2.76
2018-11-03T21:00:01.331Z,2.8
2018-11-03T21:05:01.630Z,2.91
2018-11-03T21:10:01.903Z,3.05
2018-11-03T21:15:01.513Z,3.16
2018-11-03T21:20:01.807Z,3.26
2018-11-03T21:25:02.064Z,3.33
2018-11-03T21:30:01.355Z,3.32
2018-11-03T21:35:01.907Z,3.2
2018-11-03T21:40:01.163Z,3.16
2018-11-03T21:45:01.473Z,2.98
2018-11-03T21:50:01.801Z,2.79
2018-11-03T21:55:01.193Z,2.6
2018-11-03T22:00:01.480Z,2.46
2018-11-03T22:05:01.821Z,2.21
2018-11-03T22:10:02.055Z,1.93
2018-11-03T22:15:01.342Z,1.98
2018-11-03T22:20:01.641Z,2.19
2018-11-03T22:25:01.934Z,2.19
2018-11-03T22:30:01.200Z,2.11
2018-11-03T22:35:01.494Z,1.87
2018-11-03T22:40:01.778Z,1.64
2018-11-03T22:45:02.044Z,1.51
2018-11-03T22:50:01.317Z,1.61
2018-11-03T22:55:01.635Z,1.92
2018-11-03T23:00:01.932Z,2.38
2018-11-03T23:05:01.268Z,2.13
2018-11-03T23:10:01.552Z,2.13
2018-11-03T23:15:01.827Z,2.14
2018-11-03T23:20:01.117Z,2.16
2018-11-03T23:25:01.441Z,2.03
2018-11-03T23:30:02.085Z,1.76
2018-11-03T23:35:01.281Z,1.56
2018-11-03T23:40:01.572Z,1.45
2018-11-03T23:45:01.892Z,1.32
2018-11-03T23:50:01.167Z,1.27
2018-11-03T23:55:01.440Z,1.24
